Melbourne, Australia
Current Conditions -  °F | °C
As of 3:00 PM on Friday 19 Dec 2014 (Local Time) from YMEN Reporting Station
Scattered Clouds Scattered Clouds  
Wind Chill: 64°   Ceiling: Unl
Heat Index: 64°   Visibility: 6mi
Dew Point: 46°   Wind: 12mph
Humidity: 52%   Direction: 180°S
Pressure: 30.03"   Gusts: NA
Location:  37.81°S, 144.96°E
Report Text: YMEN 190400Z AUTO 18010KT 110V190 9999 // SCT046 SCT061 18/08 Q1017
Loading
Personal Weather Stations






























Interactive Weather Map New forecast layout! Learn more

10-Day Weather Forecast

Advertisements
Track Severe Weather on mobile